createdAt,value
2022-09-27T00:00:16.590Z,99.99
2022-09-27T00:01:16.687Z,99.99
2022-09-27T00:02:16.647Z,99.99
2022-09-27T00:03:16.548Z,99.99
2022-09-27T00:04:16.531Z,99.99
2022-09-27T00:05:16.538Z,99.99
2022-09-27T00:06:16.511Z,99.99
2022-09-27T00:07:16.509Z,99.99
2022-09-27T00:08:16.482Z,99.99
2022-09-27T00:09:16.552Z,99.99
2022-09-27T00:10:16.478Z,99.99
2022-09-27T00:11:16.449Z,99.99
2022-09-27T00:12:16.432Z,99.99
2022-09-27T00:13:16.425Z,99.99
2022-09-27T00:14:17.339Z,99.99
2022-09-27T00:15:16.393Z,99.99
2022-09-27T00:16:16.511Z,99.99
2022-09-27T00:17:16.365Z,99.99
2022-09-27T00:18:16.355Z,99.99
2022-09-27T00:19:16.442Z,99.99
2022-09-27T00:20:16.327Z,99.99
2022-09-27T00:21:16.327Z,99.99
2022-09-27T00:22:16.297Z,99.99
2022-09-27T00:23:16.296Z,99.99
2022-09-27T00:24:16.283Z,99.99
2022-09-27T00:25:16.255Z,99.99
2022-09-27T00:26:16.268Z,99.99
2022-09-27T00:27:16.243Z,99.99
2022-09-27T00:28:16.225Z,99.99
2022-09-27T00:29:16.333Z,99.99
2022-09-27T00:30:16.203Z,99.99
2022-09-27T00:31:16.308Z,99.99
2022-09-27T00:32:16.197Z,99.99
2022-09-27T00:33:16.169Z,99.99
2022-09-27T00:34:16.144Z,99.99
2022-09-27T00:35:16.123Z,99.99
2022-09-27T00:36:16.136Z,99.99
2022-09-27T00:37:16.122Z,99.99
2022-09-27T00:38:16.107Z,99.99
2022-09-27T00:39:16.276Z,99.99
2022-09-27T00:40:19.485Z,99.99
2022-09-27T00:41:16.062Z,99.99
2022-09-27T00:42:16.041Z,99.99
2022-09-27T00:43:16.034Z,99.99
2022-09-27T00:44:16.027Z,99.99
2022-09-27T00:45:16.001Z,99.99
2022-09-27T00:46:16.069Z,99.99
2022-09-27T00:47:15.997Z,99.99
2022-09-27T00:48:15.962Z,99.99
2022-09-27T00:49:16.102Z,99.99
2022-09-27T00:50:15.939Z,99.99
2022-09-27T00:51:15.923Z,99.99
2022-09-27T00:52:15.910Z,99.99
2022-09-27T00:53:15.901Z,99.99
2022-09-27T00:54:15.911Z,99.99
2022-09-27T00:55:15.870Z,99.99
2022-09-27T00:56:15.879Z,99.99
2022-09-27T00:57:15.860Z,99.99
2022-09-27T00:58:15.840Z,99.99
2022-09-27T00:59:15.938Z,99.99
2022-09-27T01:00:15.802Z,99.99
2022-09-27T01:01:15.938Z,99.99
2022-09-27T01:02:15.834Z,99.99
2022-09-27T01:03:15.769Z,99.99
2022-09-27T01:04:15.777Z,99.99
2022-09-27T01:05:15.738Z,99.99
2022-09-27T01:06:15.739Z,99.99
2022-09-27T01:07:15.707Z,99.99
2022-09-27T01:08:15.708Z,99.99
2022-09-27T01:09:15.799Z,99.99
2022-09-27T01:10:15.677Z,99.99
2022-09-27T01:11:15.656Z,99.99
2022-09-27T01:12:15.647Z,99.99
2022-09-27T01:13:15.636Z,99.99
2022-09-27T01:14:15.652Z,99.99
2022-09-27T01:15:15.616Z,99.99
2022-09-27T01:16:15.722Z,99.99
2022-09-27T01:17:15.587Z,99.99
2022-09-27T01:18:15.576Z,99.99
2022-09-27T01:19:15.691Z,99.99
2022-09-27T01:20:15.561Z,99.99
2022-09-27T01:21:15.536Z,99.99
2022-09-27T01:22:15.527Z,99.99
2022-09-27T01:23:15.512Z,99.99
2022-09-27T01:24:15.494Z,99.99
2022-09-27T01:25:15.505Z,99.99
2022-09-27T01:26:15.475Z,99.99
2022-09-27T01:27:15.465Z,99.99
2022-09-27T01:28:15.465Z,99.99
2022-09-27T01:29:15.515Z,99.99
2022-09-27T01:30:15.445Z,99.99
2022-09-27T01:31:15.438Z,99.99
2022-09-27T01:32:15.394Z,99.99
2022-09-27T01:33:15.373Z,99.99
2022-09-27T01:34:15.373Z,99.99
2022-09-27T01:35:15.353Z,99.99
2022-09-27T01:36:15.373Z,99.99
2022-09-27T01:37:15.335Z,99.99
2022-09-27T01:38:15.320Z,99.99
2022-09-27T01:39:15.380Z,99.99
2022-09-27T01:40:15.324Z,99.99
2022-09-27T01:41:15.303Z,99.99
2022-09-27T01:42:19.861Z,99.99
2022-09-27T01:43:16.242Z,99.99
2022-09-27T01:44:15.234Z,99.99
2022-09-27T01:45:15.233Z,99.99
2022-09-27T01:46:15.275Z,99.99
2022-09-27T01:47:15.230Z,99.99
2022-09-27T01:48:15.200Z,99.99
2022-09-27T01:49:15.307Z,99.99
2022-09-27T01:50:15.226Z,99.99
2022-09-27T01:51:15.149Z,99.99
2022-09-27T01:52:15.140Z,99.99
2022-09-27T01:53:15.131Z,99.99
2022-09-27T01:54:15.121Z,99.99
2022-09-27T01:55:15.142Z,99.99
2022-09-27T01:56:15.102Z,99.99
2022-09-27T01:57:15.072Z,99.99
2022-09-27T01:58:15.070Z,99.99
2022-09-27T01:59:15.196Z,99.99
2022-09-27T02:00:15.040Z,99.99
2022-09-27T02:01:15.066Z,99.99
2022-09-27T02:02:15.051Z,99.99
2022-09-27T02:03:14.996Z,99.99
2022-09-27T02:04:14.990Z,99.99
2022-09-27T02:05:14.968Z,99.99
2022-09-27T02:06:14.957Z,99.99
2022-09-27T02:07:14.963Z,99.99
2022-09-27T02:08:14.928Z,99.99
2022-09-27T02:09:15.098Z,99.99
2022-09-27T02:10:14.907Z,99.99
2022-09-27T02:11:14.885Z,99.99
2022-09-27T02:12:14.899Z,99.99
2022-09-27T02:13:14.857Z,99.99
2022-09-27T02:14:14.857Z,99.99
2022-09-27T02:15:14.838Z,99.99
2022-09-27T02:16:14.874Z,99.99
2022-09-27T02:17:14.828Z,99.99
2022-09-27T02:18:14.804Z,99.99
2022-09-27T02:19:14.979Z,99.99
2022-09-27T02:20:14.765Z,99.99
2022-09-27T02:21:14.775Z,99.99
2022-09-27T02:22:14.764Z,99.99
2022-09-27T02:23:14.734Z,99.99
2022-09-27T02:24:14.723Z,99.99
2022-09-27T02:25:14.704Z,99.99
2022-09-27T02:26:14.696Z,99.99
2022-09-27T02:27:35.690Z,99.99
2022-09-27T02:28:14.675Z,99.99
2022-09-27T02:29:14.766Z,99.99
2022-09-27T02:30:14.633Z,99.99
2022-09-27T02:31:14.710Z,99.99
2022-09-27T02:32:14.627Z,99.99
2022-09-27T02:33:14.593Z,99.99
2022-09-27T02:34:14.593Z,99.99
2022-09-27T02:35:14.582Z,99.99
2022-09-27T02:36:14.564Z,99.99
2022-09-27T02:37:14.561Z,99.99
2022-09-27T02:38:14.532Z,99.99
2022-09-27T02:39:14.585Z,99.99
2022-09-27T02:40:14.556Z,99.99
2022-09-27T02:41:14.501Z,99.99
2022-09-27T02:42:14.499Z,99.99
2022-09-27T02:43:14.471Z,99.99
2022-09-27T02:44:14.460Z,99.99
2022-09-27T02:45:14.455Z,99.99
2022-09-27T02:46:14.493Z,99.99
2022-09-27T02:47:14.430Z,99.99
2022-09-27T02:48:14.408Z,99.99
2022-09-27T02:49:14.471Z,99.99
2022-09-27T02:50:14.391Z,99.99
2022-09-27T02:51:14.392Z,99.99
2022-09-27T02:52:14.348Z,99.99
2022-09-27T02:53:14.338Z,99.99
2022-09-27T02:54:14.329Z,99.99
2022-09-27T02:55:14.316Z,99.99
2022-09-27T02:56:14.298Z,99.99
2022-09-27T02:57:14.308Z,99.99
2022-09-27T02:58:14.278Z,99.99
2022-09-27T02:59:14.341Z,99.99
2022-09-27T03:00:14.268Z,99.99
2022-09-27T03:01:14.301Z,99.99
2022-09-27T03:02:14.415Z,99.99
2022-09-27T03:03:14.216Z,99.99
2022-09-27T03:04:14.235Z,99.99
2022-09-27T03:05:14.186Z,99.99
2022-09-27T03:06:14.177Z,99.99
2022-09-27T03:07:14.176Z,99.99
2022-09-27T03:08:14.146Z,99.99
2022-09-27T03:09:14.128Z,99.99
2022-09-27T03:10:14.115Z,99.99
2022-09-27T03:11:14.127Z,99.99
2022-09-27T03:12:14.105Z,99.99
2022-09-27T03:13:14.084Z,99.99
2022-09-27T03:14:14.065Z,99.99
2022-09-27T03:15:14.064Z,99.99
2022-09-27T03:16:14.043Z,99.99
2022-09-27T03:17:14.075Z,99.99
2022-09-27T03:18:14.023Z,99.99
2022-09-27T03:19:14.108Z,99.99
2022-09-27T03:20:13.984Z,99.99
2022-09-27T03:21:13.984Z,99.99
2022-09-27T03:22:13.981Z,99.99
2022-09-27T03:23:13.958Z,99.99
2022-09-27T03:24:13.941Z,99.99
2022-09-27T03:25:13.934Z,99.99
2022-09-27T03:26:13.923Z,99.99
2022-09-27T03:27:13.912Z,99.99
2022-09-27T03:28:13.901Z,99.99
2022-09-27T03:29:13.951Z,99.99
2022-09-27T03:30:13.863Z,99.99
2022-09-27T03:31:13.938Z,99.99
2022-09-27T03:32:13.843Z,99.99
2022-09-27T03:33:13.824Z,99.99
2022-09-27T03:34:13.810Z,99.99
2022-09-27T03:35:13.835Z,99.99
2022-09-27T03:36:13.781Z,99.99
2022-09-27T03:37:13.781Z,99.99
2022-09-27T03:38:13.763Z,99.99
2022-09-27T03:39:13.801Z,99.99
2022-09-27T03:40:13.788Z,99.99
2022-09-27T03:41:13.722Z,99.99
2022-09-27T03:42:13.717Z,99.99
2022-09-27T03:43:13.700Z,99.99
2022-09-27T03:44:13.681Z,99.99
2022-09-27T03:45:13.680Z,99.99
2022-09-27T03:46:13.700Z,99.99
2022-09-27T03:47:13.672Z,99.99
2022-09-27T03:48:13.637Z,99.99
2022-09-27T03:49:13.668Z,99.99
2022-09-27T03:50:13.601Z,99.99
2022-09-27T03:51:13.591Z,99.99
2022-09-27T03:52:13.607Z,99.99
2022-09-27T03:53:13.567Z,99.99
2022-09-27T03:54:13.568Z,99.99
2022-09-27T03:55:13.540Z,99.99
2022-09-27T03:56:13.531Z,99.99
2022-09-27T03:57:13.519Z,99.99
2022-09-27T03:58:13.507Z,99.99
2022-09-27T03:59:13.538Z,99.99
2022-09-27T04:00:13.479Z,99.99
2022-09-27T04:01:13.491Z,99.99
2022-09-27T04:02:13.511Z,99.99
2022-09-27T04:03:13.437Z,99.99
2022-09-27T04:04:13.430Z,99.99
2022-09-27T04:05:13.405Z,99.99
2022-09-27T04:06:13.406Z,99.99
2022-09-27T04:07:13.396Z,99.99
2022-09-27T04:08:13.376Z,99.99
2022-09-27T04:09:13.419Z,99.99
2022-09-27T04:10:13.348Z,99.99
2022-09-27T04:11:13.335Z,99.99
2022-09-27T04:12:13.340Z,99.99
2022-09-27T04:13:13.306Z,99.99
2022-09-27T04:14:13.299Z,99.99
2022-09-27T04:15:13.290Z,99.99
2022-09-27T04:16:13.273Z,99.99
2022-09-27T04:17:13.353Z,99.99
2022-09-27T04:18:13.253Z,99.99
2022-09-27T04:19:13.294Z,99.99
2022-09-27T04:20:13.214Z,99.99
2022-09-27T04:21:13.203Z,99.99
2022-09-27T04:22:13.203Z,99.99
2022-09-27T04:23:13.172Z,99.99
2022-09-27T04:24:13.173Z,99.99
2022-09-27T04:25:13.144Z,99.99
2022-09-27T04:26:13.143Z,99.99
2022-09-27T04:27:13.142Z,99.99
2022-09-27T04:28:13.114Z,99.99
2022-09-27T04:29:13.199Z,99.99
2022-09-27T04:30:13.083Z,99.99
2022-09-27T04:31:13.154Z,99.99
2022-09-27T04:32:13.082Z,99.99
2022-09-27T04:33:13.043Z,99.99
2022-09-27T04:34:13.042Z,99.99
2022-09-27T04:35:13.022Z,99.99
2022-09-27T04:36:13.012Z,99.99
2022-09-27T04:37:13.002Z,99.99
2022-09-27T04:38:12.991Z,99.99
2022-09-27T04:39:12.981Z,99.99
2022-09-27T04:40:13.004Z,99.99
2022-09-27T04:41:12.947Z,99.99
2022-09-27T04:42:12.951Z,99.99
2022-09-27T04:43:12.919Z,99.99
2022-09-27T04:44:12.919Z,99.99
2022-09-27T04:45:12.893Z,99.99
2022-09-27T04:46:12.933Z,99.99
2022-09-27T04:47:12.876Z,99.99
2022-09-27T04:48:12.860Z,99.99
2022-09-27T04:49:12.839Z,99.99
2022-09-27T04:50:12.829Z,99.99
2022-09-27T04:51:12.808Z,99.99
2022-09-27T04:52:12.817Z,99.99
2022-09-27T04:53:12.788Z,99.99
2022-09-27T04:54:12.775Z,99.99
2022-09-27T04:55:12.769Z,99.99
2022-09-27T04:56:12.756Z,99.99
2022-09-27T04:57:12.746Z,99.99
2022-09-27T04:58:12.730Z,99.99
2022-09-27T04:59:12.712Z,99.99
2022-09-27T05:00:12.698Z,99.99
2022-09-27T05:01:12.728Z,99.99
2022-09-27T05:02:12.741Z,99.99
2022-09-27T05:03:12.655Z,99.99
2022-09-27T05:04:12.645Z,99.99
2022-09-27T05:05:12.635Z,99.99
2022-09-27T05:06:12.618Z,99.99
2022-09-27T05:07:12.616Z,99.99
2022-09-27T05:08:12.606Z,99.99
2022-09-27T05:09:12.691Z,99.99
2022-09-27T05:10:12.574Z,99.99
2022-09-27T05:11:12.556Z,99.99
2022-09-27T05:12:12.555Z,99.99
2022-09-27T05:13:12.525Z,99.99
2022-09-27T05:14:12.561Z,99.99
2022-09-27T05:15:12.503Z,99.99
2022-09-27T05:16:12.580Z,99.99
2022-09-27T05:17:12.539Z,99.99
2022-09-27T05:18:12.473Z,99.99
2022-09-27T05:19:12.453Z,99.99
2022-09-27T05:20:12.443Z,99.99
2022-09-27T05:21:12.422Z,99.99
2022-09-27T05:22:12.424Z,99.99
2022-09-27T05:23:12.402Z,99.99
2022-09-27T05:24:12.383Z,99.99
2022-09-27T05:25:12.372Z,99.99
2022-09-27T05:26:12.370Z,99.99
2022-09-27T05:27:12.370Z,99.99
2022-09-27T05:28:12.342Z,99.99
2022-09-27T05:29:12.332Z,99.99
2022-09-27T05:30:12.312Z,99.99
2022-09-27T05:31:12.349Z,99.99
2022-09-27T05:32:12.290Z,99.99
2022-09-27T05:33:12.271Z,99.99
2022-09-27T05:34:12.271Z,99.99
2022-09-27T05:35:12.240Z,99.99
2022-09-27T05:36:12.242Z,99.99
2022-09-27T05:37:12.233Z,99.99
2022-09-27T05:38:12.220Z,99.99
2022-09-27T05:39:12.198Z,99.99
2022-09-27T05:40:36.446Z,99.99
2022-09-27T05:41:13.221Z,99.99
2022-09-27T05:42:12.170Z,99.99
2022-09-27T05:43:12.144Z,99.99
2022-09-27T05:44:12.131Z,99.99
2022-09-27T05:45:12.128Z,99.99
2022-09-27T05:46:12.162Z,99.99
2022-09-27T05:47:12.112Z,99.99
2022-09-27T05:48:12.087Z,99.99
2022-09-27T05:49:12.057Z,99.99
2022-09-27T05:50:12.047Z,99.99
2022-09-27T05:51:12.037Z,99.99
2022-09-27T05:52:15.143Z,99.99
2022-09-27T05:53:12.007Z,99.99
2022-09-27T05:54:11.998Z,99.99
2022-09-27T05:55:11.988Z,99.99
2022-09-27T05:56:11.977Z,99.99
2022-09-27T05:57:11.966Z,99.99
2022-09-27T05:58:11.957Z,99.99
2022-09-27T05:59:11.936Z,99.99
2022-09-27T06:00:11.936Z,99.99
2022-09-27T06:01:11.959Z,99.99
2022-09-27T06:02:12.043Z,99.99
2022-09-27T06:03:11.885Z,99.99
2022-09-27T06:04:11.874Z,99.99
2022-09-27T06:05:11.855Z,99.99
2022-09-27T06:06:11.846Z,99.99
2022-09-27T06:07:11.852Z,99.99
2022-09-27T06:08:11.834Z,99.99
2022-09-27T06:09:11.806Z,99.99
2022-09-27T06:10:11.822Z,99.99
2022-09-27T06:11:11.774Z,99.99
2022-09-27T06:12:11.781Z,99.99
2022-09-27T06:13:11.766Z,99.99
2022-09-27T06:14:11.744Z,99.99
2022-09-27T06:15:11.733Z,99.99
2022-09-27T06:16:11.745Z,99.99
2022-09-27T06:17:11.719Z,99.99
2022-09-27T06:18:11.691Z,99.99
2022-09-27T06:19:11.682Z,99.99
2022-09-27T06:20:11.663Z,99.99
2022-09-27T06:21:11.652Z,99.99
2022-09-27T06:22:15.681Z,99.99
2022-09-27T06:23:11.632Z,99.99
2022-09-27T06:24:11.611Z,99.99
2022-09-27T06:25:11.629Z,99.99
2022-09-27T06:26:11.621Z,99.99
2022-09-27T06:27:11.592Z,99.99
2022-09-27T06:28:11.570Z,99.99
2022-09-27T06:29:11.656Z,99.99
2022-09-27T06:30:11.530Z,99.99
2022-09-27T06:31:11.612Z,99.84
2022-09-27T06:32:11.542Z,99.63
2022-09-27T06:33:11.514Z,99.54
2022-09-27T06:34:11.480Z,99.63
2022-09-27T06:35:11.478Z,99.74
2022-09-27T06:36:11.529Z,99.84
2022-09-27T06:37:11.463Z,99.54
2022-09-27T06:38:11.438Z,99.54
2022-09-27T06:39:11.509Z,99.54
2022-09-27T06:40:11.459Z,99.84
2022-09-27T06:41:11.405Z,99.63
2022-09-27T06:42:11.453Z,99.54
2022-09-27T06:43:11.370Z,99.43
2022-09-27T06:44:11.353Z,99.43
2022-09-27T06:45:11.347Z,99.43
2022-09-27T06:46:11.438Z,99.43
2022-09-27T06:47:11.317Z,99.43
2022-09-27T06:48:11.307Z,99.43
2022-09-27T06:49:11.346Z,99.43
2022-09-27T06:50:11.309Z,99.43
2022-09-27T06:51:11.265Z,99.54
2022-09-27T06:52:11.247Z,99.54
2022-09-27T06:53:11.257Z,99.54
2022-09-27T06:54:11.226Z,99.63
2022-09-27T06:55:11.215Z,99.43
2022-09-27T06:56:11.197Z,99.33
2022-09-27T06:57:11.186Z,99.43
2022-09-27T06:58:11.205Z,99.22
2022-09-27T06:59:11.276Z,99.33
2022-09-27T07:00:11.146Z,99.12
2022-09-27T07:01:11.192Z,99.12
2022-09-27T07:02:11.187Z,99.43
2022-09-27T07:03:11.123Z,99.22
2022-09-27T07:04:11.093Z,99.12
2022-09-27T07:05:11.081Z,99.54
2022-09-27T07:06:11.072Z,99.63
2022-09-27T07:07:11.055Z,99.33
2022-09-27T07:08:11.073Z,99.22
2022-09-27T07:09:11.181Z,98.92
2022-09-27T07:10:11.013Z,98.92
2022-09-27T07:11:11.011Z,99.02
2022-09-27T07:12:10.990Z,99.22
2022-09-27T07:13:10.991Z,99.22
2022-09-27T07:14:10.983Z,99.02
2022-09-27T07:15:11.051Z,98.92
2022-09-27T07:16:10.982Z,98.82
2022-09-27T07:17:10.923Z,99.12
2022-09-27T07:18:10.913Z,99.12
2022-09-27T07:19:10.989Z,99.22
2022-09-27T07:20:10.884Z,99.12
2022-09-27T07:21:10.881Z,98.92
2022-09-27T07:22:10.860Z,98.82
2022-09-27T07:23:10.857Z,98.82
2022-09-27T07:24:10.857Z,98.71
2022-09-27T07:25:10.823Z,98.51
2022-09-27T07:26:10.821Z,98.10
2022-09-27T07:27:10.814Z,97.48
2022-09-27T07:28:10.790Z,97.38
2022-09-27T07:29:10.843Z,97.28
2022-09-27T07:30:10.759Z,97.58
2022-09-27T07:31:10.787Z,97.95
2022-09-27T07:32:10.730Z,97.95
2022-09-27T07:33:10.746Z,97.89
2022-09-27T07:34:10.710Z,97.85
2022-09-27T07:35:10.710Z,97.74
2022-09-27T07:36:10.678Z,97.64
2022-09-27T07:37:10.708Z,97.64
2022-09-27T07:38:10.689Z,97.44
2022-09-27T07:39:10.649Z,97.54
2022-09-27T07:40:10.647Z,97.23
2022-09-27T07:41:10.628Z,97.23
2022-09-27T07:42:10.596Z,97.33
2022-09-27T07:43:10.604Z,97.23
2022-09-27T07:44:10.576Z,97.23
2022-09-27T07:45:10.600Z,96.92
2022-09-27T07:46:10.573Z,97.13
2022-09-27T07:47:10.537Z,97.54
2022-09-27T07:48:10.567Z,97.60
2022-09-27T07:49:10.625Z,97.19
2022-09-27T07:50:10.498Z,96.72
2022-09-27T07:51:10.505Z,96.62
2022-09-27T07:52:10.474Z,96.31
2022-09-27T07:53:10.474Z,96.41
2022-09-27T07:54:10.455Z,96.67
2022-09-27T07:55:10.443Z,96.98
2022-09-27T07:56:10.538Z,97.29
2022-09-27T07:57:10.415Z,97.39
2022-09-27T07:58:10.407Z,97.49
2022-09-27T07:59:10.457Z,97.49
2022-09-27T08:00:10.374Z,97.39
2022-09-27T08:01:10.410Z,97.39
2022-09-27T08:02:10.419Z,97.34
2022-09-27T08:03:10.342Z,97.04
2022-09-27T08:04:10.322Z,96.67
2022-09-27T08:05:10.314Z,96.78
2022-09-27T08:06:10.331Z,96.94
2022-09-27T08:07:14.172Z,96.73
2022-09-27T08:08:10.276Z,96.78
2022-09-27T08:09:10.254Z,97.04
2022-09-27T08:10:10.253Z,96.73
2022-09-27T08:11:10.242Z,96.73
2022-09-27T08:12:10.221Z,96.94
2022-09-27T08:13:10.203Z,96.53
2022-09-27T08:14:10.201Z,96.53
2022-09-27T08:15:10.189Z,96.42
2022-09-27T08:16:10.229Z,96.22
2022-09-27T08:17:10.151Z,96.42
2022-09-27T08:18:10.152Z,96.32
2022-09-27T08:19:10.128Z,96.01
2022-09-27T08:20:10.128Z,95.81
2022-09-27T08:21:10.110Z,96.22
2022-09-27T08:22:10.089Z,96.22
2022-09-27T08:23:10.079Z,96.22
2022-09-27T08:24:10.059Z,96.42
2022-09-27T08:25:10.048Z,96.42
2022-09-27T08:26:10.060Z,96.53
2022-09-27T08:27:11.908Z,95.86
2022-09-27T08:28:10.017Z,95.34
2022-09-27T08:29:09.998Z,95.34
2022-09-27T08:30:09.988Z,95.54
2022-09-27T08:31:09.990Z,95.03
2022-09-27T08:32:09.970Z,95.14
2022-09-27T08:33:09.947Z,95.14
2022-09-27T08:34:09.969Z,95.03
2022-09-27T08:35:09.917Z,95.44
2022-09-27T08:36:09.937Z,96.01
2022-09-27T08:37:09.887Z,96.63
2022-09-27T08:38:09.894Z,96.73
2022-09-27T08:39:09.867Z,96.32
2022-09-27T08:40:09.865Z,95.36
2022-09-27T08:41:09.897Z,95.76
2022-09-27T08:42:09.906Z,95.87
2022-09-27T08:43:09.836Z,95.51
2022-09-27T08:44:09.835Z,94.90
2022-09-27T08:45:09.820Z,94.80
2022-09-27T08:46:09.877Z,93.57
2022-09-27T08:47:09.913Z,93.57
2022-09-27T08:48:09.795Z,94.04
2022-09-27T08:49:09.776Z,94.55
2022-09-27T08:50:09.766Z,93.84
2022-09-27T08:51:09.725Z,93.12
2022-09-27T08:52:09.716Z,93.01
2022-09-27T08:53:09.713Z,93.79
2022-09-27T08:54:09.715Z,94.40
2022-09-27T08:55:09.663Z,93.89
2022-09-27T08:56:09.655Z,94.06
2022-09-27T08:57:09.631Z,93.65
2022-09-27T08:58:09.642Z,92.52
2022-09-27T08:59:09.603Z,92.72
2022-09-27T09:00:09.609Z,92.83
2022-09-27T09:01:09.620Z,92.62
2022-09-27T09:02:10.153Z,91.29
2022-09-27T09:03:09.587Z,91.39
2022-09-27T09:04:09.541Z,91.44
2022-09-27T09:05:09.531Z,91.13
2022-09-27T09:06:09.542Z,90.31
2022-09-27T09:07:09.505Z,90.72
2022-09-27T09:08:09.541Z,90.31
2022-09-27T09:09:09.481Z,90.72
2022-09-27T09:10:09.479Z,90.11
2022-09-27T09:11:09.452Z,90.11
2022-09-27T09:12:09.443Z,91.03
2022-09-27T09:13:09.420Z,91.44
2022-09-27T09:14:13.455Z,91.44
2022-09-27T09:15:09.417Z,90.82
2022-09-27T09:16:09.423Z,90.31
2022-09-27T09:17:09.381Z,90.15
2022-09-27T09:18:09.368Z,90.77
2022-09-27T09:19:09.368Z,91.07
2022-09-27T09:20:13.445Z,91.38
2022-09-27T09:21:10.328Z,92.46
2022-09-27T09:22:09.319Z,92.66
2022-09-27T09:23:09.308Z,92.25
2022-09-27T09:24:09.301Z,92.25
2022-09-27T09:25:09.272Z,91.99
2022-09-27T09:26:09.266Z,91.95
2022-09-27T09:27:09.257Z,92.77
2022-09-27T09:28:09.235Z,92.77
2022-09-27T09:29:09.236Z,92.87
2022-09-27T09:30:09.200Z,91.95
2022-09-27T09:31:09.196Z,92.46
2022-09-27T09:32:09.176Z,92.97
2022-09-27T09:33:09.177Z,93.38
2022-09-27T09:34:09.216Z,92.40
2022-09-27T09:35:09.149Z,92.60
2022-09-27T09:36:09.134Z,92.81
2022-09-27T09:37:09.125Z,92.91
2022-09-27T09:38:09.096Z,93.73
2022-09-27T09:39:09.094Z,94.45
2022-09-27T09:40:09.383Z,94.55
2022-09-27T09:41:09.073Z,94.24
2022-09-27T09:42:09.053Z,94.75
2022-09-27T09:43:09.042Z,94.34
2022-09-27T09:44:09.056Z,94.18
2022-09-27T09:45:09.034Z,94.08
2022-09-27T09:46:09.068Z,94.49
2022-09-27T09:47:08.995Z,94.75
2022-09-27T09:48:08.963Z,94.34
2022-09-27T09:49:08.964Z,94.08
2022-09-27T09:50:08.944Z,93.88
2022-09-27T09:51:08.953Z,94.29
2022-09-27T09:52:09.327Z,94.65
2022-09-27T09:53:08.922Z,93.98
2022-09-27T09:54:08.947Z,93.57
2022-09-27T09:55:08.889Z,93.77
2022-09-27T09:56:08.873Z,93.77
2022-09-27T09:57:08.863Z,93.37
2022-09-27T09:58:08.842Z,93.26
2022-09-27T09:59:08.833Z,93.37
2022-09-27T10:00:08.811Z,93.88
2022-09-27T10:01:08.925Z,94.08
2022-09-27T10:02:08.879Z,94.08
2022-09-27T10:03:08.791Z,94.65
2022-09-27T10:04:08.824Z,94.55
2022-09-27T10:05:08.750Z,94.65
2022-09-27T10:06:08.881Z,94.34
2022-09-27T10:07:08.819Z,94.39
2022-09-27T10:08:08.791Z,95.47
2022-09-27T10:09:08.780Z,94.75
2022-09-27T10:10:08.769Z,94.65
2022-09-27T10:11:08.689Z,94.24
2022-09-27T10:12:08.670Z,94.55
2022-09-27T10:13:08.659Z,94.75
2022-09-27T10:14:08.731Z,94.96
2022-09-27T10:15:08.629Z,93.57
2022-09-27T10:16:08.640Z,93.16
2022-09-27T10:17:08.608Z,93.26
2022-09-27T10:18:08.587Z,93.77
2022-09-27T10:19:08.581Z,94.39
2022-09-27T10:20:08.560Z,94.80
2022-09-27T10:21:08.541Z,94.80
2022-09-27T10:22:08.557Z,95.21
2022-09-27T10:23:08.527Z,95.51
2022-09-27T10:24:10.451Z,95.57
2022-09-27T10:25:09.500Z,94.39
2022-09-27T10:26:08.488Z,94.65
2022-09-27T10:27:08.466Z,94.96
2022-09-27T10:28:08.477Z,95.26
2022-09-27T10:29:08.460Z,94.96
2022-09-27T10:30:08.434Z,94.65
2022-09-27T10:31:08.429Z,94.45
2022-09-27T10:32:08.407Z,93.84
2022-09-27T10:33:08.407Z,94.45
2022-09-27T10:34:08.413Z,94.45
2022-09-27T10:35:08.366Z,95.06
2022-09-27T10:36:08.360Z,96.14
2022-09-27T10:37:08.346Z,95.53
2022-09-27T10:38:08.337Z,95.22
2022-09-27T10:39:08.312Z,95.02
2022-09-27T10:40:08.297Z,94.40
2022-09-27T10:41:08.295Z,94.71
2022-09-27T10:42:08.275Z,94.92
2022-09-27T10:43:08.306Z,94.96
2022-09-27T10:44:08.252Z,94.92
2022-09-27T10:45:08.243Z,95.26
2022-09-27T10:46:08.267Z,95.02
2022-09-27T10:47:08.212Z,95.17
2022-09-27T10:48:08.201Z,95.73
2022-09-27T10:49:08.205Z,94.60
2022-09-27T10:50:08.217Z,94.71
2022-09-27T10:51:08.164Z,95.12
2022-09-27T10:52:08.152Z,95.63
2022-09-27T10:53:08.142Z,95.53
2022-09-27T10:54:08.132Z,96.00
2022-09-27T10:55:08.125Z,95.18
2022-09-27T10:56:09.045Z,95.64
2022-09-27T10:57:08.075Z,95.44
2022-09-27T10:58:08.071Z,95.34
2022-09-27T10:59:08.090Z,95.09
2022-09-27T11:00:08.051Z,95.39
2022-09-27T11:01:08.106Z,94.98
2022-09-27T11:02:08.012Z,93.66
2022-09-27T11:03:08.012Z,93.45
2022-09-27T11:04:08.001Z,93.82
2022-09-27T11:05:11.241Z,93.71
2022-09-27T11:06:08.963Z,93.62
2022-09-27T11:07:07.951Z,93.37
2022-09-27T11:08:07.939Z,89.94
2022-09-27T11:09:07.950Z,89.02
2022-09-27T11:10:07.908Z,90.86
2022-09-27T11:11:07.907Z,90.75
2022-09-27T11:12:07.895Z,90.66
2022-09-27T11:13:07.883Z,91.27
2022-09-27T11:14:07.859Z,91.63
2022-09-27T11:15:07.869Z,90.31
2022-09-27T11:16:07.886Z,91.02
2022-09-27T11:17:07.831Z,90.20
2022-09-27T11:18:07.808Z,89.59
2022-09-27T11:19:09.935Z,89.79
2022-09-27T11:20:08.797Z,89.39
2022-09-27T11:21:07.779Z,88.98
2022-09-27T11:22:07.758Z,89.53
2022-09-27T11:23:07.759Z,90.41
2022-09-27T11:24:07.793Z,89.63
2022-09-27T11:25:07.739Z,88.51
2022-09-27T11:26:07.708Z,89.02
2022-09-27T11:27:07.699Z,89.32
2022-09-27T11:28:07.699Z,90.31
2022-09-27T11:29:07.665Z,89.49
2022-09-27T11:30:07.665Z,89.02
2022-09-27T11:31:07.719Z,89.32
2022-09-27T11:32:07.644Z,89.39
2022-09-27T11:33:07.615Z,90.81
2022-09-27T11:34:07.627Z,91.18
2022-09-27T11:35:07.602Z,89.25
2022-09-27T11:36:07.575Z,89.14
2022-09-27T11:37:07.565Z,87.82
2022-09-27T11:38:07.544Z,86.55
2022-09-27T11:39:07.533Z,87.37
2022-09-27T11:40:07.546Z,88.39
2022-09-27T11:41:07.503Z,87.53
2022-09-27T11:42:07.494Z,86.51
2022-09-27T11:43:07.486Z,84.67
2022-09-27T11:44:07.477Z,85.19
2022-09-27T11:45:31.917Z,84.88
2022-09-27T11:46:17.865Z,84.17
2022-09-27T11:47:08.481Z,84.82
2022-09-27T11:48:07.499Z,84.41
2022-09-27T11:49:07.411Z,84.20
2022-09-27T11:50:07.391Z,84.00
2022-09-27T11:51:07.410Z,83.53
2022-09-27T11:52:07.374Z,84.86
2022-09-27T11:53:07.359Z,85.06
2022-09-27T11:54:07.343Z,84.66
2022-09-27T11:55:07.332Z,84.08
2022-09-27T11:56:07.335Z,84.18
2022-09-27T11:57:07.311Z,83.98
2022-09-27T11:58:07.306Z,84.18
2022-09-27T11:59:07.281Z,83.98
2022-09-27T12:00:07.262Z,84.49
2022-09-27T12:01:07.284Z,84.01
2022-09-27T12:02:07.394Z,84.42
2022-09-27T12:03:07.252Z,84.47
2022-09-27T12:04:07.207Z,85.08
2022-09-27T12:05:07.203Z,85.69
2022-09-27T12:06:07.793Z,85.28
2022-09-27T12:07:07.183Z,86.20
2022-09-27T12:08:07.149Z,87.23
2022-09-27T12:09:07.161Z,86.71
2022-09-27T12:10:07.132Z,86.00
2022-09-27T12:11:07.131Z,86.61
2022-09-27T12:12:07.100Z,87.12
2022-09-27T12:13:07.092Z,85.86
2022-09-27T12:14:07.079Z,85.45
2022-09-27T12:15:07.545Z,85.35
2022-09-27T12:16:07.172Z,85.86
2022-09-27T12:17:07.172Z,86.67
2022-09-27T12:18:07.039Z,85.65
2022-09-27T12:19:07.027Z,85.96
2022-09-27T12:20:07.007Z,86.33
2022-09-27T12:21:06.998Z,85.82
2022-09-27T12:22:06.969Z,86.12
2022-09-27T12:23:06.967Z,85.51
2022-09-27T12:24:06.947Z,84.18
2022-09-27T12:25:06.937Z,85.21
2022-09-27T12:26:06.936Z,86.02
2022-09-27T12:27:06.941Z,87.35
2022-09-27T12:28:06.895Z,86.49
2022-09-27T12:29:06.886Z,85.77
2022-09-27T12:30:06.873Z,83.84
2022-09-27T12:31:27.918Z,83.53
2022-09-27T12:32:07.879Z,82.92
2022-09-27T12:33:06.845Z,82.41
2022-09-27T12:34:06.816Z,83.73
2022-09-27T12:35:06.808Z,82.41
2022-09-27T12:36:06.813Z,83.33
2022-09-27T12:37:06.785Z,83.12
2022-09-27T12:38:06.782Z,82.92
2022-09-27T12:39:06.754Z,83.57
2022-09-27T12:40:06.742Z,84.69
2022-09-27T12:41:06.733Z,84.69
2022-09-27T12:42:06.724Z,84.49
2022-09-27T12:43:06.703Z,85.61
2022-09-27T12:44:06.714Z,85.55
2022-09-27T12:45:06.682Z,86.26
2022-09-27T12:46:06.692Z,87.38
2022-09-27T12:47:06.695Z,88.04
2022-09-27T12:48:06.636Z,88.96
2022-09-27T12:49:06.638Z,88.45
2022-09-27T12:50:06.612Z,88.76
2022-09-27T12:51:06.602Z,89.58
2022-09-27T12:52:06.596Z,89.72